createdAt,value
2016-09-16T00:00:25.851Z,20.3
2016-09-16T00:01:26.278Z,20.38
2016-09-16T00:02:25.849Z,20.33
2016-09-16T00:03:26.102Z,20.38
2016-09-16T00:04:26.390Z,20.38
2016-09-16T00:05:25.831Z,20.35
2016-09-16T00:06:26.039Z,20.39
2016-09-16T00:07:25.921Z,20.35
2016-09-16T00:08:27.453Z,20.33
2016-09-16T00:09:26.012Z,20.3
2016-09-16T00:10:26.293Z,20.35
2016-09-16T00:11:27.210Z,20.35
2016-09-16T00:12:26.074Z,20.33
2016-09-16T00:13:25.840Z,20.35
2016-09-16T00:14:26.283Z,20.34
2016-09-16T00:15:25.850Z,20.35
2016-09-16T00:16:26.408Z,20.35
2016-09-16T00:17:25.860Z,20.34
2016-09-16T00:18:26.245Z,20.38
2016-09-16T00:19:26.354Z,20.3
2016-09-16T00:20:26.124Z,20.35
2016-09-16T00:21:26.542Z,20.38
2016-09-16T00:22:26.312Z,20.35
2016-09-16T00:23:25.951Z,20.3
2016-09-16T00:24:25.871Z,20.31
2016-09-16T00:25:25.876Z,20.31
2016-09-16T00:26:26.157Z,20.27
2016-09-16T00:27:25.885Z,20.3
2016-09-16T00:28:25.878Z,20.31
2016-09-16T00:29:26.679Z,20.15
2016-09-16T00:30:26.424Z,20.24
2016-09-16T00:31:25.868Z,20.28
2016-09-16T00:32:25.894Z,20.25
2016-09-16T00:33:26.203Z,20.23
2016-09-16T00:34:26.089Z,20.28
2016-09-16T00:35:25.877Z,20.13
2016-09-16T00:36:26.926Z,20.21
2016-09-16T00:37:25.873Z,20.27
2016-09-16T00:38:25.874Z,20.16
2016-09-16T00:39:25.888Z,20.24
2016-09-16T00:40:25.881Z,20.09
2016-09-16T00:41:26.787Z,20.27
2016-09-16T00:42:26.530Z,20.28
2016-09-16T00:43:25.886Z,20.2
2016-09-16T00:44:25.888Z,20.24
2016-09-16T00:45:25.874Z,20.21
2016-09-16T00:46:25.891Z,20.2
2016-09-16T00:47:25.891Z,20.23
2016-09-16T00:48:25.913Z,20.1
2016-09-16T00:49:25.869Z,20.1
2016-09-16T00:50:26.114Z,20.2
2016-09-16T00:51:26.662Z,20.12
2016-09-16T00:52:26.185Z,20.13
2016-09-16T00:53:25.903Z,20.13
2016-09-16T00:54:25.891Z,20.2
2016-09-16T00:55:27.169Z,20.23
2016-09-16T00:56:25.991Z,20.13
2016-09-16T00:57:25.925Z,20.1
2016-09-16T00:58:25.945Z,20.05
2016-09-16T00:59:25.893Z,20.06
2016-09-16T01:00:25.887Z,20.03
2016-09-16T01:01:25.911Z,20.03
2016-09-16T01:02:26.339Z,19.94
2016-09-16T01:03:25.905Z,19.94
2016-09-16T01:04:25.911Z,19.9
2016-09-16T01:05:25.903Z,19.97
2016-09-16T01:06:25.920Z,19.91
2016-09-16T01:07:25.906Z,19.91
2016-09-16T01:08:25.927Z,19.91
2016-09-16T01:09:25.941Z,19.9
2016-09-16T01:10:25.909Z,19.91
2016-09-16T01:11:25.973Z,19.87
2016-09-16T01:12:25.890Z,19.84
2016-09-16T01:13:25.912Z,19.87
2016-09-16T01:14:26.373Z,19.78
2016-09-16T01:15:25.928Z,19.79
2016-09-16T01:16:25.930Z,19.76
2016-09-16T01:17:25.928Z,19.73
2016-09-16T01:18:26.313Z,19.68
2016-09-16T01:19:25.918Z,19.7
2016-09-16T01:20:26.295Z,19.78
2016-09-16T01:21:25.930Z,19.83
2016-09-16T01:22:26.525Z,19.76
2016-09-16T01:23:25.939Z,19.69
2016-09-16T01:24:26.224Z,19.65
2016-09-16T01:25:26.361Z,19.75
2016-09-16T01:26:25.920Z,19.63
2016-09-16T01:27:25.912Z,19.7
2016-09-16T01:28:26.739Z,19.7
2016-09-16T01:29:26.590Z,19.61
2016-09-16T01:30:25.920Z,19.61
2016-09-16T01:31:25.931Z,19.57
2016-09-16T01:32:25.943Z,19.58
2016-09-16T01:33:25.929Z,19.54
2016-09-16T01:34:25.930Z,19.53
2016-09-16T01:35:25.927Z,19.57
2016-09-16T01:36:25.947Z,19.48
2016-09-16T01:37:25.936Z,19.51
2016-09-16T01:38:25.976Z,19.46
2016-09-16T01:39:25.923Z,19.46
2016-09-16T01:40:25.947Z,19.58
2016-09-16T01:41:25.919Z,19.38
2016-09-16T01:42:25.929Z,19.43
2016-09-16T01:43:25.954Z,19.42
2016-09-16T01:44:25.954Z,19.51
2016-09-16T01:45:25.937Z,19.46
2016-09-16T01:46:25.942Z,19.38
2016-09-16T01:47:26.078Z,19.43
2016-09-16T01:48:25.955Z,19.42
2016-09-16T01:49:25.933Z,19.4
2016-09-16T01:50:26.367Z,19.36
2016-09-16T01:51:25.944Z,19.35
2016-09-16T01:52:25.953Z,19.25
2016-09-16T01:53:25.941Z,19.31
2016-09-16T01:54:25.959Z,19.31
2016-09-16T01:55:25.951Z,19.32
2016-09-16T01:56:25.949Z,19.33
2016-09-16T01:57:25.956Z,19.23
2016-09-16T01:58:25.939Z,19.2
2016-09-16T01:59:25.961Z,19.18
2016-09-16T02:00:25.952Z,19.11
2016-09-16T02:01:25.973Z,19.2
2016-09-16T02:02:25.953Z,19.13
2016-09-16T02:03:25.962Z,19.1
2016-09-16T02:04:25.948Z,19.08
2016-09-16T02:05:26.241Z,18.91
2016-09-16T02:06:25.963Z,19.08
2016-09-16T02:07:26.203Z,19.05
2016-09-16T02:08:25.975Z,19.01
2016-09-16T02:09:25.981Z,19.05
2016-09-16T02:10:25.959Z,19.01
2016-09-16T02:11:26.044Z,18.94
2016-09-16T02:12:25.969Z,18.98
2016-09-16T02:13:26.384Z,18.91
2016-09-16T02:14:25.976Z,18.92
2016-09-16T02:15:25.960Z,18.98
2016-09-16T02:16:26.005Z,18.9
2016-09-16T02:17:25.972Z,18.79
2016-09-16T02:18:26.213Z,18.8
2016-09-16T02:19:26.439Z,18.84
2016-09-16T02:20:26.358Z,18.91
2016-09-16T02:21:25.968Z,18.87
2016-09-16T02:22:25.978Z,18.87
2016-09-16T02:23:25.959Z,18.83
2016-09-16T02:24:25.962Z,18.84
2016-09-16T02:25:27.099Z,18.84
2016-09-16T02:26:25.999Z,18.77
2016-09-16T02:27:26.711Z,18.8
2016-09-16T02:28:25.967Z,18.74
2016-09-16T02:29:25.988Z,18.79
2016-09-16T02:30:25.986Z,18.74
2016-09-16T02:31:25.984Z,18.77
2016-09-16T02:32:25.972Z,18.65
2016-09-16T02:33:26.479Z,18.72
2016-09-16T02:34:26.809Z,18.73
2016-09-16T02:35:26.495Z,18.67
2016-09-16T02:36:25.968Z,18.76
2016-09-16T02:37:26.448Z,18.79
2016-09-16T02:38:25.989Z,18.74
2016-09-16T02:39:25.981Z,18.67
2016-09-16T02:40:26.947Z,18.67
2016-09-16T02:41:25.987Z,18.59
2016-09-16T02:42:26.546Z,18.54
2016-09-16T02:43:26.069Z,18.57
2016-09-16T02:44:25.985Z,18.57
2016-09-16T02:45:25.967Z,18.64
2016-09-16T02:46:26.484Z,18.61
2016-09-16T02:47:26.001Z,18.57
2016-09-16T02:48:26.016Z,18.59
2016-09-16T02:49:26.006Z,18.61
2016-09-16T02:50:25.998Z,18.64
2016-09-16T02:51:25.990Z,18.44
2016-09-16T02:52:26.023Z,18.5
2016-09-16T02:53:26.679Z,18.47
2016-09-16T02:54:27.029Z,18.42
2016-09-16T02:55:26.032Z,18.47
2016-09-16T02:56:25.989Z,18.36
2016-09-16T02:57:26.008Z,18.24
2016-09-16T02:58:27.327Z,18.19
2016-09-16T02:59:25.992Z,18.24
2016-09-16T03:00:26.000Z,18.18
2016-09-16T03:01:26.469Z,18.12
2016-09-16T03:02:26.700Z,18.15
2016-09-16T03:03:26.581Z,18.09
2016-09-16T03:04:26.035Z,18.15
2016-09-16T03:05:26.032Z,18.07
2016-09-16T03:06:26.009Z,18.17
2016-09-16T03:07:26.026Z,17.94
2016-09-16T03:08:26.025Z,17.94
2016-09-16T03:09:26.009Z,17.97
2016-09-16T03:10:26.021Z,17.82
2016-09-16T03:11:26.027Z,17.84
2016-09-16T03:12:26.029Z,18.02
2016-09-16T03:13:26.041Z,17.85
2016-09-16T03:14:26.042Z,17.91
2016-09-16T03:15:26.025Z,17.87
2016-09-16T03:16:26.028Z,17.85
2016-09-16T03:17:26.047Z,17.78
2016-09-16T03:18:26.039Z,17.81
2016-09-16T03:19:26.041Z,17.79
2016-09-16T03:20:26.024Z,17.73
2016-09-16T03:21:26.043Z,17.78
2016-09-16T03:22:26.032Z,17.64
2016-09-16T03:23:26.039Z,17.69
2016-09-16T03:24:26.017Z,17.69
2016-09-16T03:25:26.053Z,17.7
2016-09-16T03:26:26.041Z,17.67
2016-09-16T03:27:26.060Z,17.64
2016-09-16T03:28:26.016Z,17.59
2016-09-16T03:29:26.039Z,17.48
2016-09-16T03:30:26.041Z,17.59
2016-09-16T03:31:26.033Z,17.53
2016-09-16T03:32:26.042Z,17.59
2016-09-16T03:33:26.038Z,17.5
2016-09-16T03:34:26.041Z,17.51
2016-09-16T03:35:26.045Z,17.63
2016-09-16T03:36:26.038Z,17.54
2016-09-16T03:37:26.041Z,17.55
2016-09-16T03:38:26.065Z,17.54
2016-09-16T03:39:26.035Z,17.5
2016-09-16T03:40:26.059Z,17.51
2016-09-16T03:41:26.052Z,17.41
2016-09-16T03:42:26.060Z,17.44
2016-09-16T03:43:26.069Z,17.36
2016-09-16T03:44:26.069Z,17.44
2016-09-16T03:45:26.055Z,17.46
2016-09-16T03:46:26.071Z,17.32
2016-09-16T03:47:26.067Z,17.26
2016-09-16T03:48:26.061Z,17.4
2016-09-16T03:49:26.089Z,17.36
2016-09-16T03:50:26.079Z,17.33
2016-09-16T03:51:26.072Z,17.4
2016-09-16T03:52:26.066Z,17.35
2016-09-16T03:53:26.058Z,17.32
2016-09-16T03:54:26.057Z,17.4
2016-09-16T03:55:26.061Z,17.28
2016-09-16T03:56:26.083Z,17.33
2016-09-16T03:57:26.048Z,17.22
2016-09-16T03:58:26.083Z,17.33
2016-09-16T03:59:26.060Z,17.35
2016-09-16T04:00:26.070Z,17.26
2016-09-16T04:01:26.076Z,17.23
2016-09-16T04:02:26.063Z,17.25
2016-09-16T04:03:26.073Z,17.2
2016-09-16T04:04:26.064Z,17.15
2016-09-16T04:05:26.092Z,17.13
2016-09-16T04:06:26.066Z,17.1
2016-09-16T04:07:26.072Z,17.13
2016-09-16T04:08:26.076Z,17.2
2016-09-16T04:09:26.080Z,17
2016-09-16T04:10:26.305Z,17.14
2016-09-16T04:11:26.519Z,17.14
2016-09-16T04:12:26.441Z,16.99
2016-09-16T04:13:26.656Z,17.07
2016-09-16T04:14:26.482Z,17.07
2016-09-16T04:15:26.532Z,17.1
2016-09-16T04:16:26.074Z,16.99
2016-09-16T04:17:26.532Z,16.96
2016-09-16T04:18:26.094Z,16.93
2016-09-16T04:19:26.350Z,16.88
2016-09-16T04:20:26.102Z,16.93
2016-09-16T04:21:26.465Z,16.85
2016-09-16T04:22:26.091Z,16.78
2016-09-16T04:23:26.507Z,16.81
2016-09-16T04:24:26.105Z,16.85
2016-09-16T04:25:26.580Z,16.71
2016-09-16T04:26:26.108Z,16.71
2016-09-16T04:27:26.109Z,16.58
2016-09-16T04:28:26.102Z,16.67
2016-09-16T04:29:26.090Z,16.52
2016-09-16T04:30:26.113Z,16.56
2016-09-16T04:31:26.104Z,16.58
2016-09-16T04:32:26.093Z,16.55
2016-09-16T04:33:26.125Z,16.56
2016-09-16T04:34:26.107Z,16.49
2016-09-16T04:35:26.119Z,16.45
2016-09-16T04:36:26.131Z,16.53
2016-09-16T04:37:26.118Z,16.53
2016-09-16T04:38:26.120Z,16.48
2016-09-16T04:39:26.107Z,16.35
2016-09-16T04:40:26.104Z,16.44
2016-09-16T04:41:26.104Z,16.44
2016-09-16T04:42:26.139Z,16.34
2016-09-16T04:43:26.105Z,16.34
2016-09-16T04:44:26.112Z,16.37
2016-09-16T04:45:26.108Z,16.37
2016-09-16T04:46:26.113Z,16.44
2016-09-16T04:47:26.106Z,16.3
2016-09-16T04:48:26.121Z,16.33
2016-09-16T04:49:26.128Z,16.31
2016-09-16T04:50:26.135Z,16.2
2016-09-16T04:51:26.118Z,16.31
2016-09-16T04:52:26.115Z,16.22
2016-09-16T04:53:26.131Z,16.25
2016-09-16T04:54:26.189Z,16.27
2016-09-16T04:55:26.120Z,16.3
2016-09-16T04:56:26.212Z,16.33
2016-09-16T04:57:26.123Z,16.2
2016-09-16T04:58:26.113Z,16.25
2016-09-16T04:59:26.177Z,16.37
2016-09-16T05:00:26.139Z,16.25
2016-09-16T05:01:26.231Z,16.25
2016-09-16T05:02:26.179Z,16.35
2016-09-16T05:03:26.159Z,16.27
2016-09-16T05:04:26.104Z,16.37
2016-09-16T05:05:26.114Z,16.37
2016-09-16T05:06:26.109Z,16.27
2016-09-16T05:07:26.106Z,16.31
2016-09-16T05:08:26.130Z,16.33
2016-09-16T05:09:26.147Z,16.33
2016-09-16T05:10:26.133Z,16.38
2016-09-16T05:11:26.186Z,16.3
2016-09-16T05:12:26.155Z,16.26
2016-09-16T05:13:26.311Z,16.35
2016-09-16T05:14:26.317Z,16.35
2016-09-16T05:15:26.339Z,16.34
2016-09-16T05:16:26.358Z,16.35
2016-09-16T05:17:26.157Z,16.33
2016-09-16T05:18:26.150Z,16.27
2016-09-16T05:19:26.141Z,16.3
2016-09-16T05:20:26.159Z,16.3
2016-09-16T05:21:26.160Z,16.26
2016-09-16T05:22:26.162Z,16.35
2016-09-16T05:23:26.139Z,16.26
2016-09-16T05:24:26.131Z,16.34
2016-09-16T05:25:26.148Z,16.27
2016-09-16T05:26:26.145Z,16.23
2016-09-16T05:27:26.151Z,16.35
2016-09-16T05:28:26.141Z,16.37
2016-09-16T05:29:26.148Z,16.34
2016-09-16T05:30:26.165Z,16.35
2016-09-16T05:31:26.193Z,16.3
2016-09-16T05:32:26.137Z,16.4
2016-09-16T05:33:26.180Z,16.26
2016-09-16T05:34:26.156Z,16.35
2016-09-16T05:35:26.261Z,16.26
2016-09-16T05:36:26.166Z,16.35
2016-09-16T05:37:26.170Z,16.31
2016-09-16T05:38:26.655Z,16.35
2016-09-16T05:39:26.144Z,16.37
2016-09-16T05:40:26.181Z,16.38
2016-09-16T05:41:26.161Z,16.35
2016-09-16T05:42:26.282Z,16.38
2016-09-16T05:43:26.164Z,16.42
2016-09-16T05:44:26.858Z,16.41
2016-09-16T05:45:26.169Z,16.41
2016-09-16T05:46:26.249Z,16.49
2016-09-16T05:47:26.156Z,16.5
2016-09-16T05:48:26.172Z,16.56
2016-09-16T05:49:26.183Z,16.49
2016-09-16T05:50:26.186Z,16.59
2016-09-16T05:51:26.235Z,16.56
2016-09-16T05:52:26.185Z,16.67
2016-09-16T05:53:26.193Z,16.52
2016-09-16T05:54:26.189Z,16.62
2016-09-16T05:55:26.278Z,16.7
2016-09-16T05:56:26.200Z,16.59
2016-09-16T05:57:26.217Z,16.7
2016-09-16T05:58:26.186Z,16.63
2016-09-16T05:59:26.183Z,16.78
2016-09-16T06:00:26.162Z,16.8
2016-09-16T06:01:26.171Z,16.81
2016-09-16T06:02:26.305Z,16.89
2016-09-16T06:03:26.214Z,16.77
2016-09-16T06:04:26.193Z,16.89
2016-09-16T06:05:26.209Z,16.9
2016-09-16T06:06:26.231Z,16.95
2016-09-16T06:07:26.183Z,16.95
2016-09-16T06:08:26.188Z,17
2016-09-16T06:09:26.177Z,17.1
2016-09-16T06:10:26.199Z,17
2016-09-16T06:11:26.192Z,17.11
2016-09-16T06:12:26.192Z,17.14
2016-09-16T06:13:26.269Z,17.17
2016-09-16T06:14:26.211Z,17.25
2016-09-16T06:15:26.209Z,17.29
2016-09-16T06:16:26.439Z,17.3
2016-09-16T06:17:29.901Z,17.33
2016-09-16T06:18:26.188Z,17.3
2016-09-16T06:19:26.177Z,17.38
2016-09-16T06:20:26.274Z,17.47
2016-09-16T06:21:26.265Z,17.53
2016-09-16T06:22:26.308Z,17.54
2016-09-16T06:23:26.272Z,17.54
2016-09-16T06:24:26.184Z,17.62
2016-09-16T06:25:26.195Z,17.73
2016-09-16T06:26:26.198Z,17.78
2016-09-16T06:27:26.209Z,17.81
2016-09-16T06:28:26.196Z,17.91
2016-09-16T06:29:26.414Z,17.87
2016-09-16T06:30:26.212Z,17.91
2016-09-16T06:31:26.234Z,17.88
2016-09-16T06:32:26.217Z,17.89
2016-09-16T06:33:26.218Z,17.92
2016-09-16T06:34:26.212Z,18.04
2016-09-16T06:35:26.229Z,17.97
2016-09-16T06:36:26.222Z,18.02
2016-09-16T06:37:26.225Z,18.13
2016-09-16T06:38:26.275Z,18.13
2016-09-16T06:39:26.210Z,18.21
2016-09-16T06:40:26.227Z,18.15
2016-09-16T06:41:26.224Z,18.19
2016-09-16T06:42:26.213Z,18.24
2016-09-16T06:43:26.625Z,18.28
2016-09-16T06:44:27.402Z,18.34
2016-09-16T06:45:26.208Z,18.49
2016-09-16T06:46:26.200Z,18.58
2016-09-16T06:47:26.263Z,18.67
2016-09-16T06:48:26.203Z,18.67
2016-09-16T06:49:26.207Z,18.74
2016-09-16T06:50:27.293Z,18.72
2016-09-16T06:51:27.211Z,18.76
2016-09-16T06:52:26.216Z,18.74
2016-09-16T06:53:26.248Z,18.79
2016-09-16T06:54:27.057Z,18.84
2016-09-16T06:55:26.220Z,18.8
2016-09-16T06:56:26.237Z,18.92
2016-09-16T06:57:27.045Z,18.97
2016-09-16T06:58:26.352Z,18.97
2016-09-16T06:59:26.258Z,18.95
2016-09-16T07:00:26.273Z,19.06
2016-09-16T07:01:26.245Z,19.01
2016-09-16T07:02:27.195Z,19.11
2016-09-16T07:03:26.257Z,19.14
2016-09-16T07:04:26.239Z,19.15
2016-09-16T07:05:26.216Z,19.17
2016-09-16T07:06:26.252Z,19.18
2016-09-16T07:07:26.303Z,19.28
2016-09-16T07:08:26.226Z,19.28
2016-09-16T07:09:26.258Z,19.31
2016-09-16T07:10:26.266Z,19.4
2016-09-16T07:11:26.227Z,19.6
2016-09-16T07:12:26.234Z,19.63
2016-09-16T07:13:26.308Z,19.7
2016-09-16T07:14:26.250Z,19.83
2016-09-16T07:15:26.290Z,19.76
2016-09-16T07:16:26.239Z,19.83
2016-09-16T07:17:26.260Z,19.87
2016-09-16T07:18:26.366Z,19.95
2016-09-16T07:19:26.271Z,19.94
2016-09-16T07:20:26.248Z,19.94
2016-09-16T07:21:26.253Z,19.79
2016-09-16T07:22:26.276Z,19.91
2016-09-16T07:23:26.706Z,19.9
2016-09-16T07:24:27.005Z,19.83
2016-09-16T07:25:26.284Z,19.87
2016-09-16T07:26:26.260Z,19.8
2016-09-16T07:27:26.308Z,19.86
2016-09-16T07:28:26.772Z,19.8
2016-09-16T07:29:26.293Z,19.66
2016-09-16T07:30:26.268Z,19.75
2016-09-16T07:31:26.293Z,19.57
2016-09-16T07:32:26.272Z,19.61
2016-09-16T07:33:27.035Z,19.58
2016-09-16T07:34:26.311Z,19.53
2016-09-16T07:35:26.275Z,19.53
2016-09-16T07:36:26.292Z,19.53
2016-09-16T07:37:26.264Z,19.47
2016-09-16T07:38:26.867Z,19.47
2016-09-16T07:39:26.301Z,19.54
2016-09-16T07:40:26.285Z,19.47
2016-09-16T07:41:26.276Z,19.68
2016-09-16T07:42:26.946Z,19.51
2016-09-16T07:43:26.319Z,19.61
2016-09-16T07:44:27.037Z,19.61
2016-09-16T07:45:26.437Z,19.66
2016-09-16T07:46:26.335Z,19.72
2016-09-16T07:47:26.884Z,19.79
2016-09-16T07:48:26.277Z,19.84
2016-09-16T07:49:26.318Z,19.9
2016-09-16T07:50:26.348Z,19.94
2016-09-16T07:51:26.791Z,19.94
2016-09-16T07:52:26.342Z,19.94
2016-09-16T07:53:26.303Z,20.02
2016-09-16T07:54:26.305Z,20
2016-09-16T07:55:26.339Z,20
2016-09-16T07:56:26.324Z,20.1
2016-09-16T07:57:27.073Z,20.24
2016-09-16T07:58:26.265Z,20.27
2016-09-16T07:59:26.984Z,20.27
2016-09-16T08:00:26.727Z,20.24
2016-09-16T08:01:27.263Z,20.35
2016-09-16T08:02:26.297Z,20.34
2016-09-16T08:03:26.328Z,20.46
2016-09-16T08:04:26.385Z,20.49
2016-09-16T08:05:26.465Z,20.47
2016-09-16T08:06:26.310Z,20.49
2016-09-16T08:07:26.314Z,20.64
2016-09-16T08:08:26.433Z,20.56
2016-09-16T08:09:26.308Z,20.71
2016-09-16T08:10:26.295Z,20.66
2016-09-16T08:11:27.612Z,20.72
2016-09-16T08:12:26.309Z,20.68
2016-09-16T08:13:26.298Z,20.65
2016-09-16T08:14:26.301Z,20.51
2016-09-16T08:15:26.309Z,20.65
2016-09-16T08:16:26.319Z,20.66
2016-09-16T08:17:26.319Z,20.71
2016-09-16T08:18:26.302Z,20.65
2016-09-16T08:19:26.298Z,20.66
2016-09-16T08:20:26.315Z,20.71
2016-09-16T08:21:26.317Z,20.53
2016-09-16T08:22:26.301Z,20.62
2016-09-16T08:23:26.318Z,20.69
2016-09-16T08:24:26.301Z,20.69
2016-09-16T08:25:26.336Z,20.65
2016-09-16T08:26:26.296Z,20.54
2016-09-16T08:27:26.314Z,20.58
2016-09-16T08:28:26.738Z,20.68
2016-09-16T08:29:26.315Z,20.71
2016-09-16T08:30:26.358Z,20.65
2016-09-16T08:31:26.325Z,20.77
2016-09-16T08:32:26.595Z,20.64
2016-09-16T08:33:26.713Z,20.59
2016-09-16T08:34:26.304Z,20.66
2016-09-16T08:35:26.331Z,20.74
2016-09-16T08:36:26.350Z,20.62
2016-09-16T08:37:26.647Z,20.8
2016-09-16T08:38:26.330Z,20.87
2016-09-16T08:39:26.343Z,20.8
2016-09-16T08:40:26.435Z,20.96
2016-09-16T08:41:26.320Z,20.93
2016-09-16T08:42:26.330Z,21.04
2016-09-16T08:43:26.357Z,21.06
2016-09-16T08:44:27.368Z,21.16
2016-09-16T08:45:27.328Z,21.21
2016-09-16T08:46:26.340Z,21.29
2016-09-16T08:47:26.330Z,21.36
2016-09-16T08:48:26.352Z,21.39
2016-09-16T08:49:26.399Z,21.45
2016-09-16T08:50:26.335Z,21.56
2016-09-16T08:51:26.327Z,21.56
2016-09-16T08:52:26.644Z,21.6
2016-09-16T08:53:26.400Z,21.53
2016-09-16T08:54:26.333Z,21.67
2016-09-16T08:55:26.353Z,21.81
2016-09-16T08:56:26.730Z,21.81
2016-09-16T08:57:26.424Z,21.76
2016-09-16T08:58:26.355Z,21.98
2016-09-16T08:59:26.654Z,21.85
2016-09-16T09:00:27.179Z,21.76
2016-09-16T09:01:26.375Z,21.81
2016-09-16T09:02:26.340Z,21.83
2016-09-16T09:03:26.335Z,21.85
2016-09-16T09:04:26.340Z,21.85
2016-09-16T09:05:27.157Z,21.74
2016-09-16T09:06:26.359Z,21.83
2016-09-16T09:07:26.352Z,21.81
2016-09-16T09:08:26.762Z,21.79
2016-09-16T09:09:26.376Z,21.83
2016-09-16T09:10:26.382Z,21.99
2016-09-16T09:11:26.400Z,22.04
2016-09-16T09:12:26.367Z,22.09
2016-09-16T09:13:27.411Z,22.1
2016-09-16T09:14:26.349Z,22.23
2016-09-16T09:15:26.369Z,22.35
2016-09-16T09:16:26.393Z,22.35
2016-09-16T09:17:26.370Z,22.46
2016-09-16T09:18:27.092Z,22.56
2016-09-16T09:19:26.369Z,22.56
2016-09-16T09:20:26.406Z,22.62
2016-09-16T09:21:26.378Z,22.72
2016-09-16T09:22:26.379Z,22.71
2016-09-16T09:23:26.365Z,22.72
2016-09-16T09:24:26.383Z,22.84
2016-09-16T09:25:26.420Z,22.99
2016-09-16T09:26:26.426Z,23.04
2016-09-16T09:27:26.369Z,23.23
2016-09-16T09:28:28.358Z,23.53
2016-09-16T09:29:26.391Z,23.76
2016-09-16T09:30:26.369Z,23.7
2016-09-16T09:31:26.401Z,23.75
2016-09-16T09:32:26.991Z,23.61
2016-09-16T09:33:26.399Z,23.89
2016-09-16T09:34:26.400Z,23.95
2016-09-16T09:35:26.392Z,24.02
2016-09-16T09:36:26.438Z,24
2016-09-16T09:37:26.418Z,24.01
2016-09-16T09:38:26.660Z,23.79
2016-09-16T09:39:26.383Z,23.92
2016-09-16T09:40:26.361Z,23.79
2016-09-16T09:41:26.938Z,23.72
2016-09-16T09:42:26.393Z,23.67
2016-09-16T09:43:26.394Z,23.77
2016-09-16T09:44:26.420Z,23.9
2016-09-16T09:45:27.197Z,23.68
2016-09-16T09:46:27.094Z,23.79
2016-09-16T09:47:26.384Z,23.71
2016-09-16T09:48:26.401Z,23.9
2016-09-16T09:49:27.120Z,24.02
2016-09-16T09:50:27.096Z,24.04
2016-09-16T09:51:26.417Z,23.92
2016-09-16T09:52:26.427Z,24.01
2016-09-16T09:53:26.437Z,24.22
2016-09-16T09:54:26.474Z,24.35
2016-09-16T09:55:26.404Z,24.29
2016-09-16T09:56:26.413Z,24.29
2016-09-16T09:57:26.409Z,24.61
2016-09-16T09:58:26.489Z,24.63
2016-09-16T09:59:26.405Z,24.69
2016-09-16T10:00:26.456Z,24.54
2016-09-16T10:01:26.411Z,24.75
2016-09-16T10:02:26.461Z,24.76
2016-09-16T10:03:26.416Z,24.87
2016-09-16T10:04:26.422Z,24.77
2016-09-16T10:05:26.439Z,24.79
2016-09-16T10:06:26.410Z,24.38
2016-09-16T10:07:26.422Z,24.35
2016-09-16T10:08:26.404Z,24.37
2016-09-16T10:09:26.409Z,23.75
2016-09-16T10:10:26.447Z,23.97
2016-09-16T10:11:26.456Z,23.64
2016-09-16T10:12:26.441Z,23.76
2016-09-16T10:13:26.450Z,23.89
2016-09-16T10:14:26.451Z,23.65
2016-09-16T10:15:26.449Z,23.58
2016-09-16T10:16:26.440Z,23.64
2016-09-16T10:17:26.447Z,23.71
2016-09-16T10:18:26.423Z,23.58
2016-09-16T10:19:26.470Z,23.53
2016-09-16T10:20:26.452Z,23.43
2016-09-16T10:21:26.450Z,23.38
2016-09-16T10:22:26.436Z,23.45
2016-09-16T10:23:26.432Z,23.42
2016-09-16T10:24:26.438Z,23.45
2016-09-16T10:25:26.533Z,23.5
2016-09-16T10:26:26.438Z,23.42
2016-09-16T10:27:26.430Z,23.61
2016-09-16T10:28:26.446Z,23.58
2016-09-16T10:29:26.440Z,23.47
2016-09-16T10:30:26.489Z,23.29
2016-09-16T10:31:26.455Z,23.42
2016-09-16T10:32:26.445Z,23.24
2016-09-16T10:33:26.441Z,23.22
2016-09-16T10:34:26.474Z,23.2
2016-09-16T10:35:26.467Z,23.14
2016-09-16T10:36:26.470Z,23.04
2016-09-16T10:37:27.173Z,23.24
2016-09-16T10:38:26.497Z,23.07
2016-09-16T10:39:26.469Z,23.14
2016-09-16T10:40:26.455Z,23.12
2016-09-16T10:41:26.502Z,23.42
2016-09-16T10:42:26.480Z,23.53
2016-09-16T10:43:26.471Z,23.52
2016-09-16T10:44:26.466Z,23.58
2016-09-16T10:45:26.447Z,23.68
2016-09-16T10:46:26.544Z,23.79
2016-09-16T10:47:26.496Z,23.92
2016-09-16T10:48:26.519Z,24.02
2016-09-16T10:49:26.474Z,24.27
2016-09-16T10:50:26.460Z,24.02
2016-09-16T10:51:26.480Z,24.16
2016-09-16T10:52:26.463Z,24.16
2016-09-16T10:53:26.489Z,24.04
2016-09-16T10:54:26.463Z,24.1
2016-09-16T10:55:26.451Z,24.24
2016-09-16T10:56:26.480Z,24.16
2016-09-16T10:57:26.482Z,24.12
2016-09-16T10:58:26.475Z,24.07
2016-09-16T10:59:26.512Z,24.05
2016-09-16T11:00:26.471Z,24.1
2016-09-16T11:01:26.493Z,24.12
2016-09-16T11:02:26.468Z,24.45
2016-09-16T11:03:26.478Z,24.41
2016-09-16T11:04:26.497Z,24.29
2016-09-16T11:05:26.473Z,24.2
2016-09-16T11:06:26.498Z,24.32
2016-09-16T11:07:26.504Z,24.37
2016-09-16T11:08:26.498Z,24.41
2016-09-16T11:09:26.482Z,24.56
2016-09-16T11:10:26.537Z,24.61
2016-09-16T11:11:26.481Z,24.63
2016-09-16T11:12:26.474Z,24.75
2016-09-16T11:13:26.555Z,24.76
2016-09-16T11:14:26.490Z,24.8
2016-09-16T11:15:26.678Z,24.87
2016-09-16T11:16:26.489Z,24.91
2016-09-16T11:17:26.480Z,24.95
2016-09-16T11:18:26.503Z,24.94
2016-09-16T11:19:26.495Z,25.05
2016-09-16T11:20:26.487Z,25.06
2016-09-16T11:21:26.494Z,25.02
2016-09-16T11:22:26.516Z,24.88
2016-09-16T11:23:26.495Z,24.88
2016-09-16T11:24:26.507Z,24.91
2016-09-16T11:25:26.498Z,24.94
2016-09-16T11:26:26.507Z,24.97
2016-09-16T11:27:26.503Z,24.92
2016-09-16T11:28:26.522Z,24.92
2016-09-16T11:29:26.500Z,24.95
2016-09-16T11:30:26.491Z,24.97
2016-09-16T11:31:26.508Z,24.9
2016-09-16T11:32:26.536Z,24.92
2016-09-16T11:33:26.524Z,24.87
2016-09-16T11:34:26.500Z,24.92
2016-09-16T11:35:26.528Z,24.79
2016-09-16T11:36:26.502Z,24.82
2016-09-16T11:37:26.576Z,24.77
2016-09-16T11:38:26.568Z,24.69
2016-09-16T11:39:26.525Z,24.47
2016-09-16T11:40:26.527Z,24.57
2016-09-16T11:41:26.531Z,24.34
2016-09-16T11:42:26.511Z,24.26
2016-09-16T11:43:26.530Z,24.29
2016-09-16T11:44:26.573Z,24.29
2016-09-16T11:45:26.529Z,24.31
2016-09-16T11:46:26.530Z,24.27
2016-09-16T11:47:26.524Z,24.38
2016-09-16T11:48:26.535Z,24.42
2016-09-16T11:49:26.524Z,24.53
2016-09-16T11:50:26.540Z,24.59
2016-09-16T11:51:26.531Z,24.56
2016-09-16T11:52:26.530Z,24.75
2016-09-16T11:53:26.524Z,25
2016-09-16T11:54:26.550Z,24.92
2016-09-16T11:55:26.552Z,25.13
2016-09-16T11:56:26.539Z,25.32
2016-09-16T11:57:26.578Z,25.32
2016-09-16T11:58:26.525Z,25.35
2016-09-16T11:59:26.617Z,25.54
2016-09-16T12:00:26.534Z,25.67
2016-09-16T12:01:26.544Z,25.77
2016-09-16T12:02:26.547Z,25.98
2016-09-16T12:03:26.528Z,26.04
2016-09-16T12:04:26.563Z,26.15
2016-09-16T12:05:26.574Z,26.24
2016-09-16T12:06:26.565Z,26.32
2016-09-16T12:07:26.528Z,26.37
2016-09-16T12:08:26.547Z,26.5
2016-09-16T12:09:26.541Z,26.44
2016-09-16T12:10:26.548Z,26.4
2016-09-16T12:11:26.555Z,26.42
2016-09-16T12:12:26.576Z,26.36
2016-09-16T12:13:26.584Z,26.25
2016-09-16T12:14:27.537Z,26.28
2016-09-16T12:15:26.623Z,26.18
2016-09-16T12:16:26.575Z,26.09
2016-09-16T12:17:26.553Z,26.09
2016-09-16T12:18:26.844Z,26.17
2016-09-16T12:19:26.547Z,26.08
2016-09-16T12:20:26.556Z,26.08
2016-09-16T12:21:26.597Z,26.08
2016-09-16T12:22:26.550Z,26.17
2016-09-16T12:23:26.558Z,26.12
2016-09-16T12:24:26.593Z,26.28
2016-09-16T12:25:26.560Z,26.22
2016-09-16T12:26:26.609Z,26.22
2016-09-16T12:27:26.567Z,26.15
2016-09-16T12:28:26.578Z,26.12
2016-09-16T12:29:26.617Z,26.05
2016-09-16T12:30:26.637Z,25.87
2016-09-16T12:31:26.647Z,25.8
2016-09-16T12:32:27.256Z,25.79
2016-09-16T12:33:26.599Z,25.57
2016-09-16T12:34:26.589Z,25.64
2016-09-16T12:35:26.582Z,25.59
2016-09-16T12:36:26.570Z,25.65
2016-09-16T12:37:26.595Z,25.65
2016-09-16T12:38:26.633Z,25.53
2016-09-16T12:39:26.588Z,25.43
2016-09-16T12:40:26.597Z,25.39
2016-09-16T12:41:26.640Z,25.37
2016-09-16T12:42:26.627Z,25.25
2016-09-16T12:43:26.662Z,25.3
2016-09-16T12:44:26.676Z,25.22
2016-09-16T12:45:26.621Z,25.12
2016-09-16T12:46:26.629Z,25.05
2016-09-16T12:47:26.576Z,25.25
2016-09-16T12:48:26.585Z,25.2
2016-09-16T12:49:26.574Z,25.17
2016-09-16T12:50:26.594Z,25.2
2016-09-16T12:51:26.601Z,25.2
2016-09-16T12:52:26.609Z,25.02
2016-09-16T12:53:26.608Z,25.1
2016-09-16T12:54:26.608Z,25.02
2016-09-16T12:55:26.642Z,24.95
2016-09-16T12:56:26.656Z,24.98